ENGINEERING TRACK TESTING
Weather & Rail Temperature Monitoring

Weather station schenectady

Schenectady Passenger Station

Measurement History

Home Current History Weekly graphs

,

to download data from the start of , to the end of ,

Conditions for past 24 hours (since 09/01/2026 02:20 AM)

Time Track 1 E rail Track 1 E rail (B) Track 1 W rail Track 1 W rail (B) Outside Air
Temperature
Solar
Radiation
Max. Wind Humidity Air Pressure Rain
SpeedDir
09/02/2026 02:00 AM 65 °F 65 °F 63 °F 64 °F 64.8 °F 0 watt/m2 0 mph --- 0 % 29.788 in Hg 0 in
09/02/2026 01:45 AM 65 °F 65 °F 63 °F 64 °F 65 °F 0 watt/m2 0 mph --- 0 % 29.791 in Hg 0 in
09/02/2026 01:30 AM 65 °F 65 °F 63 °F 65 °F 65.1 °F 0 watt/m2 0 mph --- 0 % 29.79 in Hg 0 in
09/02/2026 01:15 AM 65 °F 65 °F 64 °F 65 °F 65.4 °F 0 watt/m2 0 mph --- 0 % 29.784 in Hg 0 in
09/02/2026 01:00 AM 65 °F 65 °F 64 °F 65 °F 65.4 °F 0 watt/m2 0 mph --- 0 % 29.776 in Hg 0 in
09/02/2026 12:45 AM 65 °F 65 °F 64 °F 65 °F 65.5 °F 0 watt/m2 0 mph --- 0 % 29.768 in Hg 0 in
09/02/2026 12:30 AM 65 °F 65 °F 64 °F 65 °F 65.6 °F 0 watt/m2 0 mph --- 0 % 29.757 in Hg 0 in
09/02/2026 12:15 AM 65 °F 65 °F 64 °F 65 °F 65.8 °F 0 watt/m2 0 mph --- 0 % 29.753 in Hg 0 in
09/02/2026 12:00 AM 66 °F 66 °F 64 °F 65 °F 66.2 °F 0 watt/m2 0 mph --- 0 % 29.747 in Hg 0.01 in
09/01/2026 11:45 PM 66 °F 66 °F 64 °F 65 °F 66.3 °F 0 watt/m2 0 mph --- 0 % 29.745 in Hg 0 in
09/01/2026 11:30 PM 66 °F 66 °F 65 °F 66 °F 66.7 °F 0 watt/m2 0 mph --- 0 % 29.742 in Hg 0 in
09/01/2026 11:15 PM 66 °F 66 °F 65 °F 66 °F 66.9 °F 0 watt/m2 0 mph --- 0 % 29.738 in Hg 0 in
09/01/2026 11:00 PM 67 °F 67 °F 65 °F 66 °F 67 °F 0 watt/m2 0 mph --- 0 % 29.737 in Hg 0 in
09/01/2026 10:45 PM 67 °F 67 °F 65 °F 66 °F 67.1 °F 0 watt/m2 0 mph --- 0 % 29.745 in Hg 0 in
09/01/2026 10:30 PM 67 °F 67 °F 66 °F 67 °F 67.3 °F 0 watt/m2 0 mph --- 0 % 29.749 in Hg 0 in
09/01/2026 10:15 PM 68 °F 68 °F 66 °F 67 °F 67.6 °F 0 watt/m2 0 mph --- 0 % 29.749 in Hg 0 in
09/01/2026 10:00 PM 68 °F 68 °F 67 °F 68 °F 68.3 °F 0 watt/m2 0 mph --- 0 % 29.746 in Hg 0 in
09/01/2026 09:45 PM 68 °F 69 °F 67 °F 68 °F 68.6 °F 0 watt/m2 0 mph --- 0 % 29.743 in Hg 0 in
09/01/2026 09:30 PM 69 °F 69 °F 67 °F 68 °F 68.8 °F 0 watt/m2 0 mph --- 0 % 29.736 in Hg 0.01 in
09/01/2026 09:15 PM 69 °F 69 °F 68 °F 69 °F 69 °F 0 watt/m2 0 mph --- 0 % 29.73 in Hg 0 in
09/01/2026 09:00 PM 70 °F 70 °F 68 °F 70 °F 69.7 °F 0 watt/m2 0 mph --- 0 % 29.723 in Hg 0 in
09/01/2026 08:45 PM 70 °F 71 °F 69 °F 70 °F 69.9 °F 0 watt/m2 0 mph --- 0 % 29.72 in Hg 0 in
09/01/2026 08:30 PM 71 °F 72 °F 70 °F 71 °F 70.4 °F 0 watt/m2 0 mph --- 0 % 29.714 in Hg 0 in
09/01/2026 08:15 PM 72 °F 72 °F 71 °F 71 °F 70.5 °F 0 watt/m2 0 mph --- 0 % 29.706 in Hg 0 in
09/01/2026 08:00 PM 72 °F 73 °F 71 °F 72 °F 70.7 °F 0 watt/m2 0 mph --- 0 % 29.702 in Hg 0.01 in
09/01/2026 07:45 PM 72 °F 73 °F 71 °F 72 °F 71.2 °F 0 watt/m2 0 mph --- 0 % 29.698 in Hg 0 in
09/01/2026 07:30 PM 72 °F 73 °F 71 °F 72 °F 71.1 °F 0 watt/m2 0 mph --- 0 % 29.695 in Hg 0 in
09/01/2026 07:15 PM 72 °F 73 °F 72 °F 73 °F 71.2 °F 0 watt/m2 0 mph --- 0 % 29.694 in Hg 0 in
09/01/2026 07:00 PM 73 °F 74 °F 72 °F 73 °F 71.2 °F 7 watt/m2 0 mph --- 0 % 29.698 in Hg 0 in
09/01/2026 06:45 PM 73 °F 74 °F 73 °F 74 °F 71.4 °F 12 watt/m2 0 mph --- 0 % 29.698 in Hg 0 in
09/01/2026 06:30 PM 74 °F 75 °F 73 °F 74 °F 71.4 °F 33 watt/m2 0 mph --- 0 % 29.689 in Hg 0.01 in
09/01/2026 06:15 PM 74 °F 75 °F 73 °F 74 °F 71.4 °F 39 watt/m2 0 mph --- 0 % 29.697 in Hg 0 in
09/01/2026 06:00 PM 74 °F 75 °F 74 °F 74 °F 71.6 °F 42 watt/m2 0 mph --- 0 % 29.699 in Hg 0 in
09/01/2026 05:45 PM 74 °F 75 °F 74 °F 75 °F 71.4 °F 50 watt/m2 0 mph --- 0 % 29.694 in Hg 0 in
09/01/2026 05:30 PM 75 °F 76 °F 74 °F 75 °F 71.5 °F 104 watt/m2 0 mph --- 0 % 29.691 in Hg 0.01 in
09/01/2026 05:15 PM 74 °F 75 °F 74 °F 75 °F 71 °F 112 watt/m2 0 mph --- 0 % 29.684 in Hg 0 in
09/01/2026 05:00 PM 74 °F 75 °F 73 °F 74 °F 70.7 °F 97 watt/m2 0 mph --- 0 % 29.689 in Hg 0 in
09/01/2026 04:45 PM 74 °F 75 °F 73 °F 74 °F 70.4 °F 130 watt/m2 0 mph --- 0 % 29.687 in Hg 0 in
09/01/2026 04:30 PM 73 °F 74 °F 72 °F 73 °F 70.3 °F 157 watt/m2 0 mph --- 0 % 29.688 in Hg 0 in
09/01/2026 04:15 PM 73 °F 74 °F 72 °F 73 °F 70.2 °F 105 watt/m2 0 mph --- 0 % 29.689 in Hg 0.01 in
09/01/2026 04:00 PM 73 °F 73 °F 72 °F 73 °F 69.9 °F 78 watt/m2 0 mph --- 0 % 29.69 in Hg 0 in
09/01/2026 03:45 PM 73 °F 74 °F 72 °F 73 °F 70 °F 98 watt/m2 0 mph --- 0 % 29.688 in Hg 0 in
09/01/2026 03:30 PM 73 °F 74 °F 72 °F 73 °F 69.6 °F 104 watt/m2 0 mph --- 0 % 29.689 in Hg 0.01 in
09/01/2026 03:15 PM 73 °F 74 °F 72 °F 73 °F 69.5 °F 109 watt/m2 0 mph --- 0 % 29.682 in Hg 0 in
09/01/2026 03:00 PM 73 °F 74 °F 72 °F 73 °F 68.9 °F 97 watt/m2 0 mph --- 0 % 29.678 in Hg 0 in
09/01/2026 02:45 PM 73 °F 74 °F 72 °F 73 °F 68.8 °F 71 watt/m2 0 mph --- 0 % 29.681 in Hg 0.01 in
09/01/2026 02:30 PM 73 °F 74 °F 72 °F 73 °F 69.1 °F 73 watt/m2 0 mph --- 0 % 29.682 in Hg 0 in
09/01/2026 02:15 PM 74 °F 74 °F 72 °F 73 °F 69.3 °F 75 watt/m2 0 mph --- 0 % 29.682 in Hg 0.01 in
09/01/2026 02:00 PM 74 °F 74 °F 73 °F 74 °F 69.2 °F 88 watt/m2 0 mph --- 0 % 29.68 in Hg 0 in
09/01/2026 01:45 PM 74 °F 74 °F 73 °F 74 °F 69.5 °F 76 watt/m2 0 mph --- 0 % 29.677 in Hg 0 in
09/01/2026 01:30 PM 74 °F 75 °F 73 °F 74 °F 69.4 °F 87 watt/m2 0 mph --- 0 % 29.676 in Hg 0.01 in
09/01/2026 01:15 PM 75 °F 75 °F 74 °F 75 °F 69.7 °F 112 watt/m2 0 mph --- 0 % 29.671 in Hg 0.01 in
09/01/2026 01:00 PM 75 °F 76 °F 74 °F 75 °F 70.4 °F 276 watt/m2 0 mph --- 0 % 29.671 in Hg 0 in
09/01/2026 12:45 PM 74 °F 74 °F 73 °F 74 °F 69.4 °F 126 watt/m2 0 mph --- 0 % 29.673 in Hg 0.01 in
09/01/2026 12:30 PM 74 °F 74 °F 73 °F 74 °F 69.5 °F 132 watt/m2 0 mph --- 0 % 29.674 in Hg 0.01 in
09/01/2026 12:15 PM 74 °F 74 °F 73 °F 74 °F 69.7 °F 208 watt/m2 0 mph --- 0 % 29.677 in Hg 0 in
09/01/2026 12:00 PM 72 °F 73 °F 71 °F 72 °F 69.5 °F 248 watt/m2 0 mph --- 0 % 29.675 in Hg 0.01 in
09/01/2026 11:45 AM 71 °F 71 °F 70 °F 71 °F 68.9 °F 208 watt/m2 0 mph --- 0 % 29.672 in Hg 0.01 in
09/01/2026 11:30 AM 70 °F 70 °F 68 °F 69 °F 68 °F 107 watt/m2 0 mph --- 0 % 29.665 in Hg 0.01 in
09/01/2026 11:15 AM 69 °F 69 °F 68 °F 69 °F 67.8 °F 49 watt/m2 0 mph --- 0 % 29.664 in Hg 0.01 in
09/01/2026 11:00 AM 69 °F 69 °F 68 °F 69 °F 68 °F 33 watt/m2 0 mph --- 0 % 29.653 in Hg 0 in
09/01/2026 10:45 AM 69 °F 69 °F 68 °F 69 °F 67.8 °F 32 watt/m2 0 mph --- 0 % 29.689 in Hg 0.01 in
09/01/2026 10:30 AM 69 °F 69 °F 68 °F 69 °F 67.9 °F 41 watt/m2 0 mph --- 0 % 29.679 in Hg 0.01 in
09/01/2026 10:15 AM 69 °F 69 °F 68 °F 69 °F 67.9 °F 70 watt/m2 0 mph --- 0 % 29.676 in Hg 0.01 in
09/01/2026 10:00 AM 69 °F 69 °F 68 °F 69 °F 67.9 °F 75 watt/m2 0 mph --- 0 % 29.682 in Hg 0.01 in
09/01/2026 09:45 AM 69 °F 69 °F 67 °F 68 °F 67.5 °F 86 watt/m2 0 mph --- 0 % 29.68 in Hg 0 in
09/01/2026 09:30 AM 68 °F 68 °F 67 °F 68 °F 67.5 °F 40 watt/m2 0 mph --- 0 % 29.682 in Hg 0.01 in
09/01/2026 09:15 AM 68 °F 68 °F 67 °F 68 °F 67.5 °F 37 watt/m2 0 mph --- 0 % 29.682 in Hg 0.01 in
09/01/2026 09:00 AM 68 °F 68 °F 67 °F 68 °F 67.6 °F 33 watt/m2 0 mph --- 0 % 29.694 in Hg 0.01 in
09/01/2026 08:45 AM 68 °F 68 °F 66 °F 68 °F 67.9 °F 26 watt/m2 0 mph --- 0 % 29.698 in Hg 0.01 in
09/01/2026 08:30 AM 68 °F 68 °F 66 °F 67 °F 68.2 °F 19 watt/m2 0 mph --- 0 % 29.702 in Hg 0.01 in
09/01/2026 08:15 AM 68 °F 68 °F 66 °F 67 °F 68.1 °F 16 watt/m2 0 mph --- 0 % 29.703 in Hg 0.01 in
09/01/2026 08:00 AM 68 °F 68 °F 66 °F 67 °F 67.9 °F 35 watt/m2 0 mph --- 0 % 29.693 in Hg 0 in
09/01/2026 07:45 AM 67 °F 67 °F 66 °F 67 °F 67.7 °F 26 watt/m2 0 mph --- 0 % 29.688 in Hg 0.01 in
09/01/2026 07:30 AM 67 °F 67 °F 66 °F 67 °F 67.7 °F 11 watt/m2 0 mph --- 0 % 29.69 in Hg 0.01 in
09/01/2026 07:15 AM 67 °F 67 °F 66 °F 67 °F 67.9 °F 1 watt/m2 0 mph --- 0 % 29.699 in Hg 0.01 in
09/01/2026 07:00 AM 67 °F 67 °F 66 °F 67 °F 68.1 °F 1 watt/m2 0 mph --- 0 % 29.704 in Hg 0 in
09/01/2026 06:45 AM 67 °F 67 °F 66 °F 67 °F 68.1 °F 0 watt/m2 0 mph --- 0 % 29.686 in Hg 0.01 in
09/01/2026 06:30 AM 67 °F 67 °F 66 °F 67 °F 68.4 °F 0 watt/m2 0 mph --- 0 % 29.691 in Hg 0.01 in
09/01/2026 06:15 AM 68 °F 68 °F 66 °F 67 °F 68.8 °F 0 watt/m2 0 mph --- 0 % 29.691 in Hg 0 in
09/01/2026 06:00 AM 68 °F 68 °F 66 °F 67 °F 68.8 °F 0 watt/m2 0 mph --- 0 % 29.667 in Hg 0.01 in
09/01/2026 05:45 AM 68 °F 68 °F 66 °F 67 °F 68.8 °F 0 watt/m2 0 mph --- 0 % 29.664 in Hg 0.01 in
09/01/2026 05:30 AM 68 °F 68 °F 66 °F 68 °F 69.1 °F 0 watt/m2 0 mph --- 0 % 29.665 in Hg 0 in
09/01/2026 05:15 AM 68 °F 68 °F 67 °F 68 °F 69.1 °F 0 watt/m2 0 mph --- 0 % 29.677 in Hg 0 in
09/01/2026 05:00 AM 68 °F 68 °F 67 °F 68 °F 69.1 °F 0 watt/m2 0 mph --- 0 % 29.677 in Hg 0.01 in
09/01/2026 04:45 AM 69 °F 69 °F 67 °F 68 °F 69 °F 0 watt/m2 0 mph --- 0 % 29.679 in Hg 0 in
09/01/2026 04:30 AM 69 °F 69 °F 67 °F 68 °F 69 °F 0 watt/m2 0 mph --- 0 % 29.683 in Hg 0 in
09/01/2026 04:15 AM 69 °F 69 °F 67 °F 68 °F 69 °F 0 watt/m2 0 mph --- 0 % 29.687 in Hg 0 in
09/01/2026 04:00 AM 69 °F 69 °F 67 °F 68 °F 68.9 °F 0 watt/m2 0 mph --- 0 % 29.688 in Hg 0 in
09/01/2026 03:45 AM 69 °F 69 °F 67 °F 69 °F 68.9 °F 0 watt/m2 0 mph --- 0 % 29.693 in Hg 0 in
09/01/2026 03:30 AM 69 °F 69 °F 67 °F 69 °F 69 °F 0 watt/m2 0 mph --- 0 % 29.697 in Hg 0 in
09/01/2026 03:15 AM 69 °F 69 °F 67 °F 69 °F 69 °F 0 watt/m2 0 mph --- 0 % 29.692 in Hg 0 in
09/01/2026 03:00 AM 69 °F 69 °F 67 °F 68 °F 69.1 °F 0 watt/m2 0 mph --- 0 % 29.705 in Hg 0 in
09/01/2026 02:45 AM 69 °F 69 °F 67 °F 69 °F 69 °F 0 watt/m2 0 mph --- 0 % 29.704 in Hg 0 in
09/01/2026 02:30 AM 69 °F 69 °F 67 °F 69 °F 68.9 °F 0 watt/m2 0 mph --- 0 % 29.7 in Hg 0 in

Alarms Station information Line AR Subdivision RENSSELAER